Ginga Cheetah — 3ENG3 — position and weather

sailwx.info

Track history (hours):
 
Tides and Currents Weather Stations Pressure Air Temp Water Temp Dewpoint Dewpoint Depression Visibility Wind Speed Wind Dir Waves Ship Positions

Ginga Cheetah

Last reported at 2018-Jun-13 15:50 UTC. Time now 2018-Jun-21 16:23 UTC.
Position N 01°29' E 104°33'.
Warning: this ship's position is 8 days out of date.

Length 160 m; draft 9.7 m.

Type: Ship (hazmat cat B). MMSI: 355700000.

Date/timePositionNaut miles runAvg speedWind from/ knotsBaromVisibWave heightAir tempDewpointWater temp
2018-Jun-13 15:50N 01°29' E 104°33'614.3
2018-Jun-13 15:26N 01°25' E 104°30'714.2
2018-Jun-13 14:58N 01°21' E 104°24'713.5
2018-Jun-13 14:28N 01°16' E 104°19'813.1
2018-Jun-13 13:50N 01°15' E 104°11'412.8
2018-Jun-13 13:30N 01°15' E 104°07'612.3
2018-Jun-13 12:59N 01°14' E 104°00'511.5
2018-Jun-13 12:30N 01°13' E 103°55'612.2
2018-Jun-13 12:00N 01°10' E 103°49'510.6
2018-Jun-13 11:30N 01°07' E 103°45'612.1
2018-Jun-13 11:00N 01°03' E 103°40'510.6
2018-Jun-13 10:30N 01°05' E 103°35'5 9.1
2018-Jun-13 10:00N 01°08' E 103°32'613.1
2018-Jun-13 09:31N 01°12' E 103°38'4 7.9
2018-Jun-13 09:00N 01°13' E 103°42'0 0.3
2018-Jun-13 08:30N 01°13' E 103°42'0 0.0
2018-Jun-13 07:58N 01°13' E 103°42'0 0.1
2018-Jun-13 07:28N 01°13' E 103°42'0 0.1
2018-Jun-13 06:57N 01°13' E 103°42'0 0.0
2018-Jun-13 06:28N 01°13' E 103°42'0 0.1
2018-Jun-13 05:58N 01°13' E 103°42'0 0.1
2018-Jun-13 05:30N 01°13' E 103°42'0 0.1
2018-Jun-13 05:00N 01°13' E 103°42'0 0.0
2018-Jun-13 04:30N 01°13' E 103°42'0 0.0
2018-Jun-13 03:58N 01°13' E 103°42'0 0.0
2018-Jun-13 03:30N 01°13' E 103°42'0 0.0
2018-Jun-13 03:00N 01°13' E 103°42'0 0.1
2018-Jun-13 02:30N 01°13' E 103°42'0 0.1
2018-Jun-13 02:00N 01°13' E 103°42'0 0.0
2018-Jun-13 01:30N 01°13' E 103°42'0 1.0
2018-Jun-13 01:00N 01°13' E 103°41'2 3.8
2018-Jun-13 00:30N 01°14' E 103°40'3 4.7
2018-Jun-12 23:57N 01°17' E 103°40'0 0.1
2018-Jun-12 23:22N 01°17' E 103°40'0 0.0
2018-Jun-12 22:57N 01°17' E 103°40'0 0.0
2018-Jun-12 22:25N 01°17' E 103°40'0 0.0
2018-Jun-12 22:00N 01°17' E 103°40'0 0.0
2018-Jun-12 21:24N 01°17' E 103°40'0 0.0
2018-Jun-12 20:54N 01°17' E 103°40'0 0.0
2018-Jun-12 20:27N 01°17' E 103°40'0 0.0
2018-Jun-12 19:52N 01°17' E 103°40'0 0.0
2018-Jun-12 19:25N 01°17' E 103°40'0 0.0
2018-Jun-12 18:54N 01°17' E 103°40'0 0.0
2018-Jun-12 18:28N 01°17' E 103°40'0 0.1
2018-Jun-12 17:54N 01°17' E 103°40'0 0.1
2018-Jun-12 17:07N 01°17' E 103°40'0 0.0
2018-Jun-12 16:46N 01°17' E 103°40'0 0.0
2018-Jun-12 16:27N 01°17' E 103°40'0 0.0
2018-Jun-12 15:57N 01°17' E 103°40'0 0.0
2018-Jun-12 15:30N 01°17' E 103°40'0 0.0
2018-Jun-12 14:51N 01°17' E 103°40'0 0.0
2018-Jun-12 14:30N 01°17' E 103°40'0 0.0
2018-Jun-12 14:00N 01°17' E 103°40'0 0.0
2018-Jun-12 13:22N 01°17' E 103°40'0 0.0
2018-Jun-12 12:55N 01°17' E 103°40'0 0.0
2018-Jun-12 12:21N 01°17' E 103°40'0 0.2
2018-Jun-12 12:00N 01°17' E 103°40'0 0.1
2018-Jun-12 11:30N 01°17' E 103°40'0 0.0
2018-Jun-12 10:58N 01°17' E 103°40'0 0.0
2018-Jun-12 10:30N 01°17' E 103°40'0 0.0
2018-Jun-12 09:58N 01°17' E 103°40'0 0.0
2018-Jun-12 09:28N 01°17' E 103°40'0 0.0
2018-Jun-12 08:52N 01°17' E 103°40'0 0.0
2018-Jun-12 08:27N 01°17' E 103°40'0 0.0
2018-Jun-12 07:58N 01°17' E 103°40'0 0.0
2018-Jun-12 07:25N 01°17' E 103°40'0 0.0
2018-Jun-12 06:55N 01°17' E 103°40'0 0.0
2018-Jun-12 06:25N 01°17' E 103°40'0 0.0
2018-Jun-12 05:50N 01°17' E 103°40'0 0.0
2018-Jun-12 05:30N 01°17' E 103°40'0 0.1
2018-Jun-12 04:56N 01°17' E 103°40'0 0.1
2018-Jun-12 04:28N 01°17' E 103°40'0 0.0
2018-Jun-12 04:00N 01°17' E 103°40'0 0.0
2018-Jun-12 03:13N 01°17' E 103°40'0 0.0
2018-Jun-12 02:43N 01°17' E 103°40'0 0.0
2018-Jun-12 02:28N 01°17' E 103°40'0 0.0
2018-Jun-12 01:52N 01°17' E 103°40'0 0.0
2018-Jun-12 01:22N 01°17' E 103°40'0 0.0
2018-Jun-12 01:00N 01°17' E 103°40'0 0.0
2018-Jun-12 00:30N 01°17' E 103°40'0 0.0
2018-Jun-11 23:56N 01°17' E 103°40'0 0.1
2018-Jun-11 23:30N 01°17' E 103°40'1 1.6
2018-Jun-11 23:00N 01°16' E 103°39'5 9.3
2018-Jun-11 22:30N 01°12' E 103°40'2 3.8
2018-Jun-11 21:58N 01°11' E 103°42'0 0.0
2018-Jun-11 21:30N 01°11' E 103°42'0 0.1
2018-Jun-11 21:00N 01°11' E 103°42'0 0.1
2018-Jun-11 20:30N 01°11' E 103°42'0 0.1
2018-Jun-11 20:00N 01°11' E 103°42'0 0.0
2018-Jun-11 19:30N 01°11' E 103°42'0 0.1
2018-Jun-11 19:00N 01°11' E 103°42'0 0.1
2018-Jun-11 18:30N 01°11' E 103°42'0 0.0
2018-Jun-11 18:00N 01°11' E 103°42'0 0.0
2018-Jun-11 17:30N 01°11' E 103°42'0 0.0
2018-Jun-11 17:00N 01°11' E 103°42'0 0.1
2018-Jun-11 16:22N 01°11' E 103°42'0 0.0
2018-Jun-11 16:00N 01°11' E 103°42'0 0.1
2018-Jun-11 15:29N 01°11' E 103°42'0 0.0
2018-Jun-11 15:00N 01°11' E 103°42'0 0.0
2018-Jun-11 14:30N 01°11' E 103°42'0 0.1
2018-Jun-11 14:00N 01°11' E 103°42'0 0.1
2018-Jun-11 13:30N 01°11' E 103°42'0 0.2
2018-Jun-11 12:59N 01°11' E 103°42'1 1.2
2018-Jun-11 12:30N 01°10' E 103°42'3 6.6
2018-Jun-11 12:00N 01°12' E 103°39'4 7.5
2018-Jun-11 11:30N 01°13' E 103°35'3 6.6
2018-Jun-11 11:00N 01°12' E 103°32'5 9.2
2018-Jun-11 10:29N 01°10' E 103°27'510.0
2018-Jun-11 09:59N 01°13' E 103°23'2 3.7
2018-Jun-11 09:30N 01°14' E 103°21'5 9.1
2018-Jun-11 08:59N 01°17' E 103°18'  
Track history (hours):
 
Tides and Currents Weather Stations Pressure Air Temp Water Temp Dewpoint Dewpoint Depression Visibility Wind Speed Wind Dir Waves Ship Positions

Ginga Cheetah

Last reported at 2018-Jun-13 15:50 UTC. Time now 2018-Jun-21 16:23 UTC.
Position N 01°29' E 104°33'.
Warning: this ship's position is 8 days out of date.

Length 160 m; draft 9.7 m.

Type: Ship (hazmat cat B). MMSI: 355700000.

Date/timePositionNaut miles runAvg speedWind from/ knotsBaromVisibWave heightAir tempDewpointWater temp
2018-Jun-13 15:50N 01°29' E 104°33'614.3
2018-Jun-13 15:26N 01°25' E 104°30'714.2
2018-Jun-13 14:58N 01°21' E 104°24'713.5
2018-Jun-13 14:28N 01°16' E 104°19'813.1
2018-Jun-13 13:50N 01°15' E 104°11'412.8
2018-Jun-13 13:30N 01°15' E 104°07'612.3
2018-Jun-13 12:59N 01°14' E 104°00'511.5
2018-Jun-13 12:30N 01°13' E 103°55'612.2
2018-Jun-13 12:00N 01°10' E 103°49'510.6
2018-Jun-13 11:30N 01°07' E 103°45'612.1
2018-Jun-13 11:00N 01°03' E 103°40'510.6
2018-Jun-13 10:30N 01°05' E 103°35'5 9.1
2018-Jun-13 10:00N 01°08' E 103°32'613.1
2018-Jun-13 09:31N 01°12' E 103°38'4 7.9
2018-Jun-13 09:00N 01°13' E 103°42'0 0.3
2018-Jun-13 08:30N 01°13' E 103°42'0 0.0
2018-Jun-13 07:58N 01°13' E 103°42'0 0.1
2018-Jun-13 07:28N 01°13' E 103°42'0 0.1
2018-Jun-13 06:57N 01°13' E 103°42'0 0.0
2018-Jun-13 06:28N 01°13' E 103°42'0 0.1
2018-Jun-13 05:58N 01°13' E 103°42'0 0.1
2018-Jun-13 05:30N 01°13' E 103°42'0 0.1
2018-Jun-13 05:00N 01°13' E 103°42'0 0.0
2018-Jun-13 04:30N 01°13' E 103°42'0 0.0
2018-Jun-13 03:58N 01°13' E 103°42'0 0.0
2018-Jun-13 03:30N 01°13' E 103°42'0 0.0
2018-Jun-13 03:00N 01°13' E 103°42'0 0.1
2018-Jun-13 02:30N 01°13' E 103°42'0 0.1
2018-Jun-13 02:00N 01°13' E 103°42'0 0.0
2018-Jun-13 01:30N 01°13' E 103°42'0 1.0
2018-Jun-13 01:00N 01°13' E 103°41'2 3.8
2018-Jun-13 00:30N 01°14' E 103°40'3 4.7
2018-Jun-12 23:57N 01°17' E 103°40'0 0.1
2018-Jun-12 23:22N 01°17' E 103°40'0 0.0
2018-Jun-12 22:57N 01°17' E 103°40'0 0.0
2018-Jun-12 22:25N 01°17' E 103°40'0 0.0
2018-Jun-12 22:00N 01°17' E 103°40'0 0.0
2018-Jun-12 21:24N 01°17' E 103°40'0 0.0
2018-Jun-12 20:54N 01°17' E 103°40'0 0.0
2018-Jun-12 20:27N 01°17' E 103°40'0 0.0
2018-Jun-12 19:52N 01°17' E 103°40'0 0.0
2018-Jun-12 19:25N 01°17' E 103°40'0 0.0
2018-Jun-12 18:54N 01°17' E 103°40'0 0.0
2018-Jun-12 18:28N 01°17' E 103°40'0 0.1
2018-Jun-12 17:54N 01°17' E 103°40'0 0.1
2018-Jun-12 17:07N 01°17' E 103°40'0 0.0
2018-Jun-12 16:46N 01°17' E 103°40'0 0.0
2018-Jun-12 16:27N 01°17' E 103°40'0 0.0
2018-Jun-12 15:57N 01°17' E 103°40'0 0.0
2018-Jun-12 15:30N 01°17' E 103°40'0 0.0
2018-Jun-12 14:51N 01°17' E 103°40'0 0.0
2018-Jun-12 14:30N 01°17' E 103°40'0 0.0
2018-Jun-12 14:00N 01°17' E 103°40'0 0.0
2018-Jun-12 13:22N 01°17' E 103°40'0 0.0
2018-Jun-12 12:55N 01°17' E 103°40'0 0.0
2018-Jun-12 12:21N 01°17' E 103°40'0 0.2
2018-Jun-12 12:00N 01°17' E 103°40'0 0.1
2018-Jun-12 11:30N 01°17' E 103°40'0 0.0
2018-Jun-12 10:58N 01°17' E 103°40'0 0.0
2018-Jun-12 10:30N 01°17' E 103°40'0 0.0
2018-Jun-12 09:58N 01°17' E 103°40'0 0.0
2018-Jun-12 09:28N 01°17' E 103°40'0 0.0
2018-Jun-12 08:52N 01°17' E 103°40'0 0.0
2018-Jun-12 08:27N 01°17' E 103°40'0 0.0
2018-Jun-12 07:58N 01°17' E 103°40'0 0.0
2018-Jun-12 07:25N 01°17' E 103°40'0 0.0
2018-Jun-12 06:55N 01°17' E 103°40'0 0.0
2018-Jun-12 06:25N 01°17' E 103°40'0 0.0
2018-Jun-12 05:50N 01°17' E 103°40'0 0.0
2018-Jun-12 05:30N 01°17' E 103°40'0 0.1
2018-Jun-12 04:56N 01°17' E 103°40'0 0.1
2018-Jun-12 04:28N 01°17' E 103°40'0 0.0
2018-Jun-12 04:00N 01°17' E 103°40'0 0.0
2018-Jun-12 03:13N 01°17' E 103°40'0 0.0
2018-Jun-12 02:43N 01°17' E 103°40'0 0.0
2018-Jun-12 02:28N 01°17' E 103°40'0 0.0
2018-Jun-12 01:52N 01°17' E 103°40'0 0.0
2018-Jun-12 01:22N 01°17' E 103°40'0 0.0
2018-Jun-12 01:00N 01°17' E 103°40'0 0.0
2018-Jun-12 00:30N 01°17' E 103°40'0 0.0
2018-Jun-11 23:56N 01°17' E 103°40'0 0.1
2018-Jun-11 23:30N 01°17' E 103°40'1 1.6
2018-Jun-11 23:00N 01°16' E 103°39'5 9.3
2018-Jun-11 22:30N 01°12' E 103°40'2 3.8
2018-Jun-11 21:58N 01°11' E 103°42'0 0.0
2018-Jun-11 21:30N 01°11' E 103°42'0 0.1
2018-Jun-11 21:00N 01°11' E 103°42'0 0.1
2018-Jun-11 20:30N 01°11' E 103°42'0 0.1
2018-Jun-11 20:00N 01°11' E 103°42'0 0.0
2018-Jun-11 19:30N 01°11' E 103°42'0 0.1
2018-Jun-11 19:00N 01°11' E 103°42'0 0.1
2018-Jun-11 18:30N 01°11' E 103°42'0 0.0
2018-Jun-11 18:00N 01°11' E 103°42'0 0.0
2018-Jun-11 17:30N 01°11' E 103°42'0 0.0
2018-Jun-11 17:00N 01°11' E 103°42'0 0.1
2018-Jun-11 16:22N 01°11' E 103°42'0 0.0
2018-Jun-11 16:00N 01°11' E 103°42'0 0.1
2018-Jun-11 15:29N 01°11' E 103°42'0 0.0
2018-Jun-11 15:00N 01°11' E 103°42'0 0.0
2018-Jun-11 14:30N 01°11' E 103°42'0 0.1
2018-Jun-11 14:00N 01°11' E 103°42'0 0.1
2018-Jun-11 13:30N 01°11' E 103°42'0 0.2
2018-Jun-11 12:59N 01°11' E 103°42'1 1.2
2018-Jun-11 12:30N 01°10' E 103°42'3 6.6
2018-Jun-11 12:00N 01°12' E 103°39'4 7.5
2018-Jun-11 11:30N 01°13' E 103°35'3 6.6
2018-Jun-11 11:00N 01°12' E 103°32'5 9.2
2018-Jun-11 10:29N 01°10' E 103°27'510.0
2018-Jun-11 09:59N 01°13' E 103°23'2 3.7
2018-Jun-11 09:30N 01°14' E 103°21'5 9.1
2018-Jun-11 08:59N 01°17' E 103°18'  

Dump ship's entire track history